Time;durP1;ratioP1;P1;durP2;ratioP2;P2;SDS_P1;SDS_P2;PMS_P1;PMS_P2;Temp;Humidity;BMP_temperature;BMP_pressure;BME280_temperature;BME280_humidity;BME280_pressure;Samples;Min_cycle;Max_cycle;Signal;HPM_P1;HPM_P2
2024/03/21 00:01:30;;;;;;;;;;;;;;;1.78;71.38;100621.96;134118;1298;23661;-72
2024/03/21 00:04:35;;;;;;;;;;;;;;;1.76;71.35;100618.25;134077;1298;22544;-73
2024/03/21 00:07:46;;;;;;;;;;;;;;;;;;;;;
2024/03/21 00:11:00;;;;;;;;;;;;;;;1.63;71.69;100619.98;134108;1306;22469;-72
2024/03/21 00:14:03;;;;;;;;;;;;;;;1.60;71.97;100617.91;134115;1306;22470;-73
2024/03/21 00:17:04;;;;;;;;;;;;;;;1.61;72.12;100619.08;134125;1305;23187;-73
2024/03/21 00:20:10;;;;;;;;;;;;;;;1.59;72.12;100621.45;134101;1305;22478;-72
2024/03/21 00:23:11;;;;;;;;;;;;;;;1.52;72.08;100623.96;134125;1294;22485;-73
2024/03/21 00:26:19;;;;;;;;;;;;;;;1.47;72.25;100621.00;134122;1306;22458;-73
2024/03/21 00:29:24;;;;;;;;;;;;;;;1.41;72.36;100626.45;134131;1306;22474;-73
2024/03/21 00:32:26;;;;;;;;;;;;;;;1.31;72.59;100626.32;134126;1301;23561;-72
2024/03/21 00:35:32;;;;;;;;;;;;;;;1.26;72.83;100622.82;134140;1298;22429;-72
2024/03/21 00:38:33;;;;;;;;;;;;;;;1.23;72.95;100623.35;134115;1303;23444;-72
2024/03/21 00:41:37;;;;;;;;;;;;;;;1.24;72.89;100622.27;134128;1288;22443;-72
2024/03/21 00:44:47;;;;;;;;;;;;;;;1.22;73.17;100618.51;134137;1298;22540;-72
2024/03/21 00:47:57;;;;;;;;;;;;;;;1.14;73.05;100612.40;134141;1305;22467;-72
2024/03/21 00:51:00;;;;;;;;;;;;;;;1.06;73.29;100611.51;134109;1301;22603;-72
2024/03/21 00:54:01;;;;;;;;;;;;;;;1.05;73.53;100608.44;134072;1301;22479;-72
2024/03/21 00:57:23;;;;;;;;;;;;;;;1.03;73.67;100609.09;134096;1305;22464;-72
2024/03/21 01:00:25;;;;;;;;;;;;;;;1.02;73.55;100611.06;134136;1306;23219;-73
2024/03/21 01:03:25;;;;;;;;;;;;;;;1.04;73.60;100607.45;134064;1303;22549;-73
2024/03/21 01:06:26;;;;;;;;;;;;;;;1.05;73.67;100603.05;134141;1306;22456;-72
2024/03/21 01:09:28;;;;;;;;;;;;;;;1.01;73.46;100599.45;134136;1306;23269;-75
2024/03/21 01:12:31;;;;;;;;;;;;;;;1.02;73.68;100599.20;134134;1306;22485;-73
2024/03/21 01:15:32;;;;;;;;;;;;;;;1.02;74.01;100591.22;134125;1302;22462;-73
2024/03/21 01:18:38;;;;;;;;;;;;;;;0.98;74.28;100595.43;134114;1294;23174;-72
2024/03/21 01:21:39;;;;;;;;;;;;;;;0.98;74.49;100595.48;134127;1306;22493;-72
2024/03/21 01:24:43;;;;;;;;;;;;;;;0.99;74.47;100592.77;134113;1306;23283;-72
2024/03/21 01:27:47;;;;;;;;;;;;;;;0.97;74.42;100588.89;134127;1298;22522;-72
2024/03/21 01:31:06;;;;;;;;;;;;;;;0.98;74.49;100584.29;134126;1302;23256;-72
2024/03/21 01:34:17;;;;;;;;;;;;;;;1.00;74.60;100585.20;134100;1305;22451;-73
2024/03/21 01:37:18;;;;;;;;;;;;;;;0.99;74.84;100582.15;134093;1304;22478;-72
2024/03/21 01:40:19;;;;;;;;;;;;;;;1.00;74.96;100579.31;134133;1306;22469;-72
2024/03/21 01:43:35;;;;;;;;;;;;;;;;;;;;;
2024/03/21 01:46:39;;;;;;;;;;;;;;;0.97;74.72;100576.67;134122;1301;22465;-75
2024/03/21 01:49:45;;;;;;;;;;;;;;;0.94;74.76;100574.82;134115;1306;22475;-72
2024/03/21 01:52:46;;;;;;;;;;;;;;;0.92;74.96;100569.34;134085;1306;22495;-72
2024/03/21 01:55:48;;;;;;;;;;;;;;;0.84;74.94;100566.81;134121;1306;22495;-71
2024/03/21 01:58:52;;;;;;;;;;;;;;;0.81;74.96;100568.42;134108;1305;23091;-73
2024/03/21 02:01:56;;;;;;;;;;;;;;;0.78;74.97;100568.43;134100;1305;22524;-75
2024/03/21 02:04:57;;;;;;;;;;;;;;;0.72;75.00;100561.46;134113;1306;23673;-72
2024/03/21 02:07:58;;;;;;;;;;;;;;;0.71;75.23;100561.25;134106;1304;22532;-73
2024/03/21 02:10:58;;;;;;;;;;;;;;;0.71;75.35;100561.73;134109;1305;22482;-72
2024/03/21 02:13:59;;;;;;;;;;;;;;;0.74;75.34;100562.95;133849;1306;22542;-72
2024/03/21 02:17:00;;;;;;;;;;;;;;;0.73;75.42;100561.57;134105;1306;22513;-72
2024/03/21 02:20:04;;;;;;;;;;;;;;;0.75;75.44;100560.23;134120;1306;22427;-75
2024/03/21 02:23:05;;;;;;;;;;;;;;;0.74;75.46;100561.52;134119;1306;22431;-72
2024/03/21 02:26:07;;;;;;;;;;;;;;;0.75;75.50;100561.62;134113;1306;22469;-72
2024/03/21 02:29:08;;;;;;;;;;;;;;;0.70;75.31;100560.40;134090;1303;22578;-71
2024/03/21 02:32:12;;;;;;;;;;;;;;;0.60;75.72;100563.25;134107;1306;22492;-72
2024/03/21 02:35:21;;;;;;;;;;;;;;;0.50;75.99;100565.45;134125;1301;23284;-72
2024/03/21 02:38:24;;;;;;;;;;;;;;;0.47;76.19;100568.06;134122;1298;23208;-72
2024/03/21 02:41:25;;;;;;;;;;;;;;;0.51;76.27;100565.71;134083;1307;22440;-72
2024/03/21 02:44:28;;;;;;;;;;;;;;;0.52;76.30;100562.20;134120;1301;23271;-74
2024/03/21 02:47:29;;;;;;;;;;;;;;;0.49;76.35;100558.89;134095;1298;22575;-72
2024/03/21 02:50:33;;;;;;;;;;;;;;;0.48;76.48;100556.16;134100;1306;22463;-72
2024/03/21 02:53:34;;;;;;;;;;;;;;;0.47;76.53;100555.88;134099;1305;22516;-72
2024/03/21 02:56:34;;;;;;;;;;;;;;;0.42;76.33;100550.37;134100;1306;22491;-72
2024/03/21 02:59:35;;;;;;;;;;;;;;;0.41;76.60;100553.77;134115;1306;22515;-72
2024/03/21 03:02:36;;;;;;;;;;;;;;;0.43;76.50;100555.77;134102;1306;22482;-72
2024/03/21 03:05:44;;;;;;;;;;;;;;;0.45;76.50;100559.11;134098;1306;22538;-72
2024/03/21 03:08:45;;;;;;;;;;;;;;;0.47;76.57;100557.23;134096;1306;22516;-73
2024/03/21 03:11:46;;;;;;;;;;;;;;;0.51;76.65;100560.85;134102;1301;23296;-72
2024/03/21 03:14:46;;;;;;;;;;;;;;;0.55;76.93;100557.98;134135;1301;23348;-72
2024/03/21 03:17:52;;;;;;;;;;;;;;;0.60;77.20;100554.02;134111;1306;22499;-72
2024/03/21 03:20:54;;;;;;;;;;;;;;;0.65;77.21;100549.73;134114;1298;22536;-72
2024/03/21 03:23:55;;;;;;;;;;;;;;;0.66;77.10;100549.98;134101;1306;22491;-73
2024/03/21 03:26:59;;;;;;;;;;;;;;;0.67;77.34;100547.30;134117;1306;22635;-73
2024/03/21 03:29:59;;;;;;;;;;;;;;;0.67;77.49;100544.52;134113;1306;22478;-73
2024/03/21 03:35:33;;;;;;;;;;;;;;;0.71;77.57;100544.84;134123;1305;22506;-72
2024/03/21 03:36:27;;;;;;;;;;;;;;;0.77;77.64;100547.80;134102;1306;22490;-72
2024/03/21 03:39:30;;;;;;;;;;;;;;;0.80;77.64;100549.52;133878;1305;23181;-72
2024/03/21 03:42:31;;;;;;;;;;;;;;;0.83;77.60;100548.07;134122;1306;22461;-72
2024/03/21 03:45:31;;;;;;;;;;;;;;;0.87;77.66;100550.30;134102;1298;22523;-73
2024/03/21 03:48:32;;;;;;;;;;;;;;;0.90;77.85;100549.42;134130;1306;23421;-72
2024/03/21 03:51:36;;;;;;;;;;;;;;;0.95;77.89;100548.59;134087;1298;23151;-73
2024/03/21 03:54:36;;;;;;;;;;;;;;;0.98;77.92;100541.98;134137;1302;22447;-72
2024/03/21 03:57:40;;;;;;;;;;;;;;;0.96;78.01;100543.64;134132;1306;22447;-73
2024/03/21 04:00:41;;;;;;;;;;;;;;;0.97;78.18;100545.36;134128;1306;22443;-72
2024/03/21 04:03:42;;;;;;;;;;;;;;;1.01;78.23;100548.59;134079;1306;22575;-73
2024/03/21 04:06:48;;;;;;;;;;;;;;;1.05;78.20;100549.73;134124;1306;22473;-72
2024/03/21 04:09:49;;;;;;;;;;;;;;;1.06;78.40;100547.56;134116;1306;22528;-72
2024/03/21 04:12:50;;;;;;;;;;;;;;;1.07;78.48;100547.16;134115;1299;22547;-72
2024/03/21 04:15:54;;;;;;;;;;;;;;;1.07;78.54;100545.55;134112;1306;22474;-73
2024/03/21 04:18:57;;;;;;;;;;;;;;;1.10;78.61;100540.17;134102;1304;22638;-72
2024/03/21 04:22:01;;;;;;;;;;;;;;;1.11;78.73;100534.85;134112;1299;22484;-72
2024/03/21 04:25:07;;;;;;;;;;;;;;;1.14;78.99;100537.26;134119;1301;23223;-72
2024/03/21 04:28:10;;;;;;;;;;;;;;;1.20;79.11;100543.38;133935;1305;22442;-72
2024/03/21 04:31:13;;;;;;;;;;;;;;;1.28;79.08;100541.13;134103;1301;23394;-72
2024/03/21 04:34:19;;;;;;;;;;;;;;;1.35;79.08;100537.35;134119;1300;22442;-73
2024/03/21 04:37:19;;;;;;;;;;;;;;;1.42;79.19;100541.98;134123;1305;22475;-72
2024/03/21 04:40:23;;;;;;;;;;;;;;;1.47;79.18;100538.73;134138;1298;22453;-72
2024/03/21 04:43:48;;;;;;;;;;;;;;;1.51;79.23;100537.55;134089;1298;22452;-72
2024/03/21 04:46:49;;;;;;;;;;;;;;;1.58;79.27;100539.55;134136;1303;22691;-72
2024/03/21 04:49:54;;;;;;;;;;;;;;;1.64;79.30;100544.23;134103;1305;22486;-72
2024/03/21 04:52:57;;;;;;;;;;;;;;;1.70;79.34;100541.20;134144;1298;22519;-72
2024/03/21 04:56:03;;;;;;;;;;;;;;;1.76;79.30;100535.60;134108;1298;22467;-72
2024/03/21 04:59:07;;;;;;;;;;;;;;;1.82;79.19;100534.23;134117;1298;22501;-72
2024/03/21 05:02:10;;;;;;;;;;;;;;;1.87;79.31;100539.09;134139;1302;23252;-72
2024/03/21 05:05:11;;;;;;;;;;;;;;;1.92;79.30;100538.38;134130;1306;22474;-72
2024/03/21 05:08:21;;;;;;;;;;;;;;;1.97;79.44;100540.48;134083;1298;23316;-72
2024/03/21 05:11:26;;;;;;;;;;;;;;;2.02;79.26;100541.73;134100;1300;22547;-72
2024/03/21 05:14:38;;;;;;;;;;;;;;;;;;;;;
2024/03/21 05:17:55;;;;;;;;;;;;;;;2.14;79.36;100549.83;134142;1301;22466;-72
2024/03/21 05:20:56;;;;;;;;;;;;;;;2.24;79.46;100551.65;133990;1298;22599;-75
2024/03/21 05:23:57;;;;;;;;;;;;;;;2.38;79.87;100552.23;134114;1303;22522;-72
2024/03/21 05:27:01;;;;;;;;;;;;;;;2.50;79.77;100550.60;133874;1298;23183;-72
2024/03/21 05:30:08;;;;;;;;;;;;;;;2.58;79.70;100552.45;134046;1299;22557;-74
2024/03/21 05:33:10;;;;;;;;;;;;;;;2.65;79.40;100544.96;134084;1301;23539;-73
2024/03/21 05:36:11;;;;;;;;;;;;;;;2.70;79.21;100546.92;133916;1298;23749;-73
2024/03/21 05:39:12;;;;;;;;;;;;;;;2.71;79.29;100543.04;134111;1305;23338;-74
2024/03/21 05:42:20;;;;;;;;;;;;;;;2.74;79.25;100540.56;134095;1300;22472;-73
2024/03/21 05:45:48;;;;;;;;;;;;;;;2.77;79.59;100538.96;134062;1298;23650;-79
2024/03/21 05:48:48;;;;;;;;;;;;;;;2.80;79.47;100539.94;134061;1300;22486;-75
2024/03/21 05:51:50;;;;;;;;;;;;;;;2.86;79.95;100543.55;134058;1299;22477;-74
2024/03/21 05:54:55;;;;;;;;;;;;;;;2.92;79.95;100541.77;134077;1298;22464;-73
2024/03/21 05:58:00;;;;;;;;;;;;;;;2.92;79.86;100539.63;134063;1298;23265;-76
2024/03/21 06:01:34;;;;;;;;;;;;;;;;;;;;;
2024/03/21 06:04:35;;;;;;;;;;;;;;;2.95;79.75;100545.23;134029;1298;22446;-75
2024/03/21 06:07:40;;;;;;;;;;;;;;;3.01;79.82;100540.96;134038;1298;22501;-76
2024/03/21 06:10:42;;;;;;;;;;;;;;;3.05;79.48;100539.80;134059;1298;22517;-76
2024/03/21 06:13:54;;;;;;;;;;;;;;;3.07;79.68;100538.42;134089;1299;23311;-75
2024/03/21 06:16:55;;;;;;;;;;;;;;;3.13;79.53;100538.31;134078;1305;22449;-77
2024/03/21 06:20:01;;;;;;;;;;;;;;;3.23;79.81;100535.02;134052;1298;23143;-74
2024/03/21 06:23:02;;;;;;;;;;;;;;;3.32;79.44;100534.57;134064;1298;25303;-80
2024/03/21 06:26:06;;;;;;;;;;;;;;;3.41;79.43;100528.13;134069;1298;22629;-75
2024/03/21 06:29:08;;;;;;;;;;;;;;;3.50;79.13;100535.15;134059;1298;22499;-76
2024/03/21 06:32:09;;;;;;;;;;;;;;;3.57;79.12;100538.29;134059;1298;22493;-73
2024/03/21 06:35:13;;;;;;;;;;;;;;;3.65;78.91;100544.23;134089;1305;22431;-73
2024/03/21 06:38:22;;;;;;;;;;;;;;;3.81;79.11;100546.56;134070;1298;22801;-73
2024/03/21 06:41:23;;;;;;;;;;;;;;;3.92;78.71;100545.58;134074;1300;22542;-73
2024/03/21 06:44:26;;;;;;;;;;;;;;;3.99;78.23;100545.05;134044;1301;22476;-73
2024/03/21 06:47:27;;;;;;;;;;;;;;;4.06;78.26;100537.52;134046;1298;22522;-73
2024/03/21 06:50:39;;;;;;;;;;;;;;;4.17;77.99;100545.34;134046;1301;22468;-73
2024/03/21 06:53:40;;;;;;;;;;;;;;;4.31;78.21;100542.87;133896;1299;22513;-75
2024/03/21 06:56:44;;;;;;;;;;;;;;;4.43;78.11;100547.55;133836;1301;22507;-74
2024/03/21 06:59:44;;;;;;;;;;;;;;;4.58;77.63;100551.66;134057;1285;22475;-73
2024/03/21 07:02:48;;;;;;;;;;;;;;;4.69;77.45;100548.48;134024;1301;22466;-74
2024/03/21 07:05:49;;;;;;;;;;;;;;;4.87;77.41;100553.08;134051;1298;22479;-73
2024/03/21 07:08:49;;;;;;;;;;;;;;;5.06;77.04;100549.13;134066;1299;22554;-74
2024/03/21 07:11:50;;;;;;;;;;;;;;;5.23;76.34;100550.98;134100;1298;22506;-73
2024/03/21 07:14:51;;;;;;;;;;;;;;;5.40;76.59;100551.66;134069;1300;23524;-75
2024/03/21 07:17:52;;;;;;;;;;;;;;;5.60;76.62;100552.39;134063;1303;22632;-75
2024/03/21 07:20:56;;;;;;;;;;;;;;;5.83;76.28;100550.15;134072;1301;22456;-76
2024/03/21 07:23:57;;;;;;;;;;;;;;;6.14;76.23;100547.10;134077;1298;22520;-78
2024/03/21 07:26:58;;;;;;;;;;;;;;;6.37;75.83;100547.86;134073;1299;22477;-76
2024/03/21 07:29:59;;;;;;;;;;;;;;;6.62;75.55;100549.02;134099;1299;23159;-77
2024/03/21 07:33:00;;;;;;;;;;;;;;;6.82;75.21;100544.20;134068;1305;22457;-76
2024/03/21 07:36:03;;;;;;;;;;;;;;;7.05;74.51;100541.46;134080;1301;22467;-75
2024/03/21 07:39:04;;;;;;;;;;;;;;;7.24;74.05;100545.13;134077;1298;22455;-77
2024/03/21 07:42:06;;;;;;;;;;;;;;;7.46;73.87;100545.95;134087;1300;22510;-76
2024/03/21 07:45:10;;;;;;;;;;;;;;;7.77;73.35;100545.16;134086;1306;23313;-76
2024/03/21 07:48:14;;;;;;;;;;;;;;;8.08;72.80;100541.05;134057;1301;23266;-74
2024/03/21 07:51:18;;;;;;;;;;;;;;;8.37;71.90;100539.98;134097;1305;22718;-75
2024/03/21 07:54:19;;;;;;;;;;;;;;;8.61;71.62;100538.56;134078;1300;22435;-74
2024/03/21 07:57:23;;;;;;;;;;;;;;;8.80;70.90;100535.30;134096;1301;22457;-74
2024/03/21 08:00:30;;;;;;;;;;;;;;;8.98;69.49;100524.80;134043;1298;22653;-74
2024/03/21 08:03:33;;;;;;;;;;;;;;;9.08;69.49;100527.05;133990;1298;23129;-85
2024/03/21 08:06:39;;;;;;;;;;;;;;;9.23;69.76;100521.10;133793;1298;22421;-78
2024/03/21 08:09:40;;;;;;;;;;;;;;;9.36;68.56;100521.67;134011;1298;22458;-74
2024/03/21 08:12:41;;;;;;;;;;;;;;;9.47;68.38;100515.45;134055;1298;22484;-74
2024/03/21 08:15:45;;;;;;;;;;;;;;;9.58;67.72;100515.48;134011;1289;22427;-74
2024/03/21 08:18:46;;;;;;;;;;;;;;;9.60;66.10;100514.34;133999;1300;23140;-76
2024/03/21 08:21:50;;;;;;;;;;;;;;;9.67;66.49;100513.02;134063;1298;22466;-74
2024/03/21 08:24:50;;;;;;;;;;;;;;;9.82;66.88;100513.28;134091;1303;22448;-79
2024/03/21 08:27:53;;;;;;;;;;;;;;;9.99;66.12;100508.63;134056;1305;22583;-74
2024/03/21 08:30:54;;;;;;;;;;;;;;;10.22;66.22;100505.20;134060;1304;23156;-75
2024/03/21 08:34:15;;;;;;;;;;;;;;;10.48;66.14;100506.67;134083;1298;22462;-80
2024/03/21 08:37:23;;;;;;;;;;;;;;;10.75;65.36;100509.41;134103;1301;22481;-74
2024/03/21 08:40:27;;;;;;;;;;;;;;;10.95;64.09;100508.31;134104;1305;22476;-75
2024/03/21 08:43:27;;;;;;;;;;;;;;;11.06;63.26;100509.02;134093;1301;22491;-74
2024/03/21 08:46:35;;;;;;;;;;;;;;;11.14;63.39;100511.27;134076;1305;23386;-74
2024/03/21 08:49:40;;;;;;;;;;;;;;;11.19;61.99;100509.70;134092;1298;22447;-74
2024/03/21 08:52:43;;;;;;;;;;;;;;;11.23;61.20;100512.71;134075;1306;22466;-75
2024/03/21 08:55:53;;;;;;;;;;;;;;;11.37;60.48;100512.47;134099;1305;22464;-76
2024/03/21 08:59:15;;;;;;;;;;;;;;;11.53;59.92;100510.08;134074;1298;23182;-76
2024/03/21 09:02:23;;;;;;;;;;;;;;;11.78;60.07;100510.20;134023;1306;22479;-78
2024/03/21 09:05:25;;;;;;;;;;;;;;;12.00;58.74;100511.20;134142;1298;23211;-75
2024/03/21 09:08:45;;;;;;;;;;;;;;;12.14;58.19;100508.48;134075;1298;22474;-79
2024/03/21 09:11:46;;;;;;;;;;;;;;;12.33;58.46;100506.91;134081;1301;22474;-77
2024/03/21 09:14:47;;;;;;;;;;;;;;;12.48;57.05;100504.15;134099;1305;22447;-74
2024/03/21 09:17:48;;;;;;;;;;;;;;;12.59;56.48;100496.64;134066;1305;23153;-83
2024/03/21 09:20:55;;;;;;;;;;;;;;;12.72;55.61;100496.77;134118;1304;22591;-75
2024/03/21 09:23:59;;;;;;;;;;;;;;;12.71;54.54;100493.84;134099;1298;22584;-75
2024/03/21 09:27:03;;;;;;;;;;;;;;;12.74;54.79;100492.83;134053;1305;23567;-74
2024/03/21 09:30:07;;;;;;;;;;;;;;;12.85;54.86;100493.56;134163;1300;22462;-77
2024/03/21 09:33:07;;;;;;;;;;;;;;;12.97;54.06;100486.70;134088;1304;22453;-82
2024/03/21 09:36:10;;;;;;;;;;;;;;;12.99;53.25;100483.91;134088;1298;22457;-76
2024/03/21 09:39:14;;;;;;;;;;;;;;;12.93;52.98;100484.41;134093;1299;22457;-74
2024/03/21 09:42:19;;;;;;;;;;;;;;;12.96;54.04;100478.09;134065;1298;22465;-77
2024/03/21 09:45:32;;;;;;;;;;;;;;;13.10;54.23;100475.45;134098;1298;22522;-75
2024/03/21 09:48:46;;;;;;;;;;;;;;;;;;;;;
2024/03/21 09:51:47;;;;;;;;;;;;;;;13.34;52.76;100470.55;134192;1300;23128;-74
2024/03/21 09:54:50;;;;;;;;;;;;;;;13.52;52.87;100467.30;134108;1301;22446;-74
2024/03/21 09:58:13;;;;;;;;;;;;;;;13.65;52.42;100463.63;134107;1298;22460;-75
2024/03/21 10:01:24;;;;;;;;;;;;;;;13.83;53.01;100459.59;134124;1299;22523;-75
2024/03/21 10:04:28;;;;;;;;;;;;;;;14.00;52.58;100452.80;133917;1301;22456;-77
2024/03/21 10:07:37;;;;;;;;;;;;;;;14.10;52.04;100452.60;134110;1303;22580;-74
2024/03/21 10:10:57;;;;;;;;;;;;;;;14.21;50.59;100453.70;133867;1298;22478;-74
2024/03/21 10:14:06;;;;;;;;;;;;;;;14.21;50.15;100450.13;134094;1299;22499;-75
2024/03/21 10:17:09;;;;;;;;;;;;;;;14.25;50.17;100445.88;134127;1298;23071;-76
2024/03/21 10:20:13;;;;;;;;;;;;;;;14.41;50.15;100445.48;134104;1298;22482;-75
2024/03/21 10:23:18;;;;;;;;;;;;;;;14.60;49.65;100442.63;134116;1300;22483;-75
2024/03/21 10:26:30;;;;;;;;;;;;;;;;;;;;;
2024/03/21 10:29:44;;;;;;;;;;;;;;;14.94;48.58;100439.23;134086;1298;22535;-76
2024/03/21 10:32:48;;;;;;;;;;;;;;;15.14;48.35;100438.52;133940;1298;22472;-75
2024/03/21 10:35:48;;;;;;;;;;;;;;;15.30;47.55;100435.73;134060;1306;23237;-75
2024/03/21 10:38:58;;;;;;;;;;;;;;;15.43;47.74;100441.95;134094;1299;23349;-76
2024/03/21 10:42:05;;;;;;;;;;;;;;;15.57;47.43;100440.11;134086;1298;22458;-75
2024/03/21 10:45:27;;;;;;;;;;;;;;;15.81;47.61;100441.25;133978;1298;22600;-75
2024/03/21 10:48:52;;;;;;;;;;;;;;;15.97;46.51;100438.21;133800;1301;22546;-76
2024/03/21 10:51:55;;;;;;;;;;;;;;;16.05;46.78;100435.98;134082;1298;22458;-78
2024/03/21 10:54:57;;;;;;;;;;;;;;;16.13;46.42;100432.59;134105;1301;22487;-79
2024/03/21 10:58:02;;;;;;;;;;;;;;;16.23;46.48;100430.45;133929;1300;22465;-79
2024/03/21 11:01:31;;;;;;;;;;;;;;;16.44;46.49;100427.16;134056;1299;23279;-79
2024/03/21 11:04:35;;;;;;;;;;;;;;;16.63;45.03;100429.28;133989;1298;22489;-79
2024/03/21 11:07:54;;;;;;;;;;;;;;;16.63;45.01;100423.05;134061;1298;22443;-78
2024/03/21 11:11:20;;;;;;;;;;;;;;;16.65;45.79;100416.80;134043;1306;22580;-78
2024/03/21 11:14:23;;;;;;;;;;;;;;;16.78;45.16;100411.31;134061;1305;23315;-77
2024/03/21 11:17:34;;;;;;;;;;;;;;;16.90;45.02;100410.55;134074;1298;22491;-77
2024/03/21 11:20:37;;;;;;;;;;;;;;;17.09;45.06;100413.40;134055;1301;22465;-82
2024/03/21 11:23:39;;;;;;;;;;;;;;;17.23;44.73;100407.62;134084;1305;22517;-80
2024/03/21 11:26:46;;;;;;;;;;;;;;;17.34;44.80;100405.67;133746;1298;22446;-79
2024/03/21 11:29:47;;;;;;;;;;;;;;;17.50;45.00;100401.98;134140;1301;22477;-80
2024/03/21 11:32:53;;;;;;;;;;;;;;;17.70;44.75;100399.04;134098;1298;23312;-80
2024/03/21 11:35:54;;;;;;;;;;;;;;;17.85;44.54;100399.61;134066;1299;23216;-80
2024/03/21 11:38:54;;;;;;;;;;;;;;;17.94;44.17;100397.70;134112;1298;22438;-80
2024/03/21 11:42:34;;;;;;;;;;;;;;;;;;;;;
2024/03/21 11:45:55;;;;;;;;;;;;;;;17.86;43.15;100394.77;134084;1301;22489;-80
2024/03/21 11:49:14;;;;;;;;;;;;;;;17.84;43.27;100393.08;134106;1291;22496;-80
2024/03/21 11:52:54;;;;;;;;;;;;;;;17.93;43.97;100389.48;134085;1303;22459;-80
2024/03/21 11:56:43;;;;;;;;;;;;;;;18.02;43.70;100390.54;133968;1305;22702;-81
2024/03/21 11:59:57;;;;;;;;;;;;;;;;;;;;;
2024/03/21 12:03:15;;;;;;;;;;;;;;;18.05;42.44;100386.91;134013;1300;22431;-81
2024/03/21 12:06:24;;;;;;;;;;;;;;;17.76;42.23;100385.71;134083;1303;23087;-81
2024/03/21 12:09:32;;;;;;;;;;;;;;;17.62;42.76;100385.67;134108;1298;22471;-80
2024/03/21 12:12:39;;;;;;;;;;;;;;;17.60;43.13;100379.07;134074;1299;22586;-81
2024/03/21 12:16:02;;;;;;;;;;;;;;;17.67;43.58;100374.36;134097;1300;22456;-81
2024/03/21 12:19:32;;;;;;;;;;;;;;;17.68;43.65;100375.84;134057;1298;23328;-80
2024/03/21 12:22:53;;;;;;;;;;;;;;;17.68;43.73;100377.62;134078;1306;22463;-81
2024/03/21 12:25:54;;;;;;;;;;;;;;;17.68;43.80;100380.67;134078;1303;23218;-80
2024/03/21 12:30:03;;;;;;;;;;;;;;;17.73;43.74;100378.56;134103;1301;22459;-80
2024/03/21 12:33:05;;;;;;;;;;;;;;;17.66;43.73;100375.48;134049;1301;22468;-80
2024/03/21 12:36:31;;;;;;;;;;;;;;;17.69;44.03;100372.21;134093;1306;22473;-80
2024/03/21 12:39:42;;;;;;;;;;;;;;;;;;;;;
2024/03/21 12:42:55;;;;;;;;;;;;;;;17.86;44.58;100368.92;134114;1291;23526;-80
2024/03/21 12:45:58;;;;;;;;;;;;;;;18.00;44.43;100365.89;134089;1298;22449;-80
2024/03/21 12:49:32;;;;;;;;;;;;;;;;;;;;;
2024/03/21 12:52:48;;;;;;;;;;;;;;;17.88;44.40;100362.32;134089;1305;22491;-81
2024/03/21 12:56:11;;;;;;;;;;;;;;;17.71;44.24;100359.59;134049;1298;23306;-81
2024/03/21 12:59:14;;;;;;;;;;;;;;;17.57;44.58;100357.27;134090;1303;22500;-81
2024/03/21 13:02:23;;;;;;;;;;;;;;;17.51;44.84;100353.19;134084;1301;22455;-81
2024/03/21 13:05:24;;;;;;;;;;;;;;;17.44;45.09;100358.55;134097;1300;22487;-81
2024/03/21 13:08:24;;;;;;;;;;;;;;;17.42;45.16;100355.79;134080;1298;23918;-81
2024/03/21 13:11:44;;;;;;;;;;;;;;;17.36;45.48;100357.59;134045;1300;22611;-81
2024/03/21 13:15:05;;;;;;;;;;;;;;;17.25;45.54;100352.55;134087;1298;22493;-82
2024/03/21 13:18:10;;;;;;;;;;;;;;;17.21;45.64;100348.88;134115;1305;23255;-81
2024/03/21 13:21:11;;;;;;;;;;;;;;;17.13;45.81;100350.71;134089;1301;23129;-80
2024/03/21 13:24:31;;;;;;;;;;;;;;;17.08;45.76;100349.84;134076;1299;22455;-80
2024/03/21 13:27:45;;;;;;;;;;;;;;;;;;;;;
2024/03/21 13:30:52;;;;;;;;;;;;;;;16.76;46.28;100362.00;134062;1301;23110;-81
2024/03/21 13:33:56;;;;;;;;;;;;;;;16.54;46.49;100364.49;134071;1304;23697;-81
2024/03/21 13:37:11;;;;;;;;;;;;;;;16.33;46.96;100367.08;134080;1285;22580;-81
2024/03/21 13:40:31;;;;;;;;;;;;;;;16.13;47.43;100374.63;134087;1299;22464;-81
2024/03/21 13:43:46;;;;;;;;;;;;;;;;;;;;;
2024/03/21 13:46:51;;;;;;;;;;;;;;;15.85;48.12;100381.77;134073;1301;22461;-80
2024/03/21 13:50:00;;;;;;;;;;;;;;;15.71;48.41;100383.64;134100;1306;22465;-81
2024/03/21 13:53:04;;;;;;;;;;;;;;;15.61;48.69;100379.70;134030;1304;22464;-81
2024/03/21 13:56:16;;;;;;;;;;;;;;;;;;;;;
2024/03/21 13:59:19;;;;;;;;;;;;;;;15.52;49.30;100372.31;134092;1298;22468;-80
2024/03/21 14:02:22;;;;;;;;;;;;;;;15.49;49.47;100364.91;133909;1298;23091;-80
2024/03/21 14:05:25;;;;;;;;;;;;;;;15.47;49.55;100358.56;134090;1298;22487;-80
2024/03/21 14:08:26;;;;;;;;;;;;;;;15.47;49.65;100359.02;133881;1301;22491;-81
2024/03/21 14:11:27;;;;;;;;;;;;;;;15.50;49.69;100360.56;134076;1304;22531;-81
2024/03/21 14:14:28;;;;;;;;;;;;;;;15.50;49.90;100361.39;134056;1306;23218;-81
2024/03/21 14:17:33;;;;;;;;;;;;;;;15.46;49.97;100359.70;134071;1298;22472;-80
2024/03/21 14:20:36;;;;;;;;;;;;;;;15.40;50.06;100359.16;134104;1298;22461;-80
2024/03/21 14:23:37;;;;;;;;;;;;;;;15.37;50.19;100354.67;134080;1298;23116;-81
2024/03/21 14:26:38;;;;;;;;;;;;;;;15.31;50.24;100349.53;134093;1299;22467;-81
2024/03/21 14:29:38;;;;;;;;;;;;;;;15.24;50.43;100347.50;134035;1301;23074;-81
2024/03/21 14:32:42;;;;;;;;;;;;;;;15.16;50.58;100347.63;134088;1306;22666;-80
2024/03/21 14:35:47;;;;;;;;;;;;;;;15.10;50.91;100345.15;134109;1299;22469;-81
2024/03/21 14:38:48;;;;;;;;;;;;;;;15.09;51.18;100340.69;134084;1305;22468;-82
2024/03/21 14:41:51;;;;;;;;;;;;;;;15.05;51.22;100333.99;134095;1301;23156;-81
2024/03/21 14:44:52;;;;;;;;;;;;;;;15.02;51.32;100330.14;134055;1299;23268;-80
2024/03/21 14:47:53;;;;;;;;;;;;;;;14.98;51.44;100325.14;134077;1300;22462;-78
2024/03/21 14:50:53;;;;;;;;;;;;;;;14.92;51.67;100317.42;134057;1298;23093;-81
2024/03/21 14:53:56;;;;;;;;;;;;;;;14.91;51.80;100311.20;134050;1298;22694;-79
2024/03/21 14:56:57;;;;;;;;;;;;;;;14.88;51.95;100308.31;134064;1301;22565;-78
2024/03/21 14:59:58;;;;;;;;;;;;;;;14.85;52.06;100303.27;134047;1304;22473;-79
2024/03/21 15:03:04;;;;;;;;;;;;;;;14.81;52.18;100301.34;134069;1300;22460;-79
2024/03/21 15:06:18;;;;;;;;;;;;;;;14.82;52.24;100301.27;133895;1301;22474;-81
2024/03/21 15:09:29;;;;;;;;;;;;;;;14.81;52.42;100303.84;134049;1305;22468;-78
2024/03/21 15:12:30;;;;;;;;;;;;;;;14.80;52.69;100303.08;134102;1299;22494;-80
2024/03/21 15:15:39;;;;;;;;;;;;;;;14.78;52.87;100302.90;134044;1303;22553;-79
2024/03/21 15:18:42;;;;;;;;;;;;;;;14.78;52.96;100307.45;134090;1299;22450;-79
2024/03/21 15:21:42;;;;;;;;;;;;;;;14.78;53.03;100310.75;134075;1292;22460;-78
2024/03/21 15:24:44;;;;;;;;;;;;;;;14.78;53.38;100312.73;134077;1298;22468;-79
2024/03/21 15:27:45;;;;;;;;;;;;;;;14.74;53.41;100310.38;134056;1301;22545;-80
2024/03/21 15:30:46;;;;;;;;;;;;;;;14.72;53.46;100314.08;134094;1301;22628;-82
2024/03/21 15:33:55;;;;;;;;;;;;;;;14.69;53.68;100309.95;134056;1298;22472;-83
2024/03/21 15:37:08;;;;;;;;;;;;;;;14.68;53.86;100311.91;134010;1301;23313;-80
2024/03/21 15:40:12;;;;;;;;;;;;;;;14.66;53.92;100310.45;134108;1300;23186;-79
2024/03/21 15:43:13;;;;;;;;;;;;;;;14.67;53.89;100309.02;134108;1298;22509;-79
2024/03/21 15:46:14;;;;;;;;;;;;;;;14.67;53.96;100306.45;134094;1305;22475;-79
2024/03/21 15:49:19;;;;;;;;;;;;;;;14.68;54.20;100306.04;134067;1298;24621;-79
2024/03/21 15:52:20;;;;;;;;;;;;;;;14.69;54.27;100308.72;134082;1301;22481;-79
2024/03/21 15:55:24;;;;;;;;;;;;;;;14.69;54.52;100310.45;134104;1298;23185;-79
2024/03/21 15:58:29;;;;;;;;;;;;;;;14.71;54.89;100310.59;134067;1301;22560;-80
2024/03/21 16:01:33;;;;;;;;;;;;;;;14.72;55.12;100312.59;134054;1298;23625;-79
2024/03/21 16:04:43;;;;;;;;;;;;;;;14.72;55.05;100311.95;134082;1305;22470;-79
2024/03/21 16:07:46;;;;;;;;;;;;;;;14.70;54.98;100313.20;134036;1304;23184;-79
2024/03/21 16:10:53;;;;;;;;;;;;;;;14.66;55.19;100314.73;134113;1298;22449;-78